KIJX/IJX METAR and TAF weather

Enter ICAO airport designator
Station Type Date Time Source
KIJX METAR 2020/02/24 08:35 UTC NOAA

KIJX 240835Z AUTO 17005KT 10SM SCT100 OVC120 06/03 A2989 RMK AO2 T00560031


Station Type Date Time Source
KIJX Decoded METAR 2020/02/24 08:35 UTC NOAA

Jacksonville, Jacksonville Municipal Airport, IL, United States (KIJX) 39-46-27N 090-14-19W
Feb 24, 2020 - 03:35 AM EST / 2020.02.24 0835 UTC
Wind: from the S (170 degrees) at 6 MPH (5 KT):0
Visibility: 10 mile(s):0
Sky conditions: overcast
Temperature: 42.1 F (5.6 C)
Dew Point: 37.6 F (3.1 C)
Relative Humidity: 83%
Pressure (altimeter): 29.89 in. Hg (1012 hPa)
ob: KIJX 240835Z AUTO 17005KT 10SM SCT100 OVC120 06/03 A2989 RMK AO2 T00560031
cycle: 8

Station Type Date Time Source
KIJX TAF UTC NOAA

Error!

Example: see airport list